Aérodrome :
LOGIN :

S'inscrire | Disclaimer

   EN    FR    IT 

 










Légende :    VFR   VFR Marginal   IFR   IFR Intensif   IFR Très Intensif
Visi : 
Plafond : 
>= 8 km
>= 3000ft
5 à 8 km
1000 à 3000 ft
1500m à 5 km
500 à 1000 ft
800 à 1500m
200 à 500 ft
< 800m
< 200 ft
Symboles :   Orages  Brouillard  Fortes neiges  Fortes précipitations  Vent > 20 kt
SIGMETs :   Divers  Orages  Givrage  Turbulence  Onde Orograph.  Cendres Volcan.






- Altitude de l'aérodrome : 126 ft
- Code IATA : WIC


EGPC - Wick

DERNIER METAR :
  • 141120Z 30018KT 9999 VCSH BKN015 14/10 Q1011

METARs EXPIRÉS :
  • 141050Z 31018KT 9999 VCSH BKN015 BKN025 14/11 Q1011
  • 141020Z 30017KT 9999 VCSH BKN011 BKN025 13/11 Q1011
  • 140950Z 30017KT 9999 VCSH FEW008 BKN013 13/11 Q1011
  • 140920Z 30018KT 9999 VCSH FEW008 BKN013 13/11 Q1011
  • 140850Z 29012KT 9999 VCSH FEW008 BKN013 13/11 Q1011

TAF TAF EGPC
Valide du 14 à 09h jusqu'au 14 à 18h UTC


140754Z 1409/1418 29009KT 9999 FEW004 SCT010
TEMPO 1409/1418 6000 -RADZ BKN009
PROB30
TEMPO 1409/1411 2500 DZ BR BKN004
ATIS : +44 1955 607 596



MET'MAP, la Météo Aéronautique d'un coup d'oeil ! - Copyright ORBIFLY Décembre 2007 - Disclaimer

ORBIFLY MET'MAP TEAM :

Programmation & Développement : Alexandra Zaïnal
Sur une idée originale de : Baudouin d'Aumeries
Assistance à la programmation : Marc-Olivier Méhu
Soutien technique & logistique : Manuel Goepfert

Contact : metmap@orbifly.com




SOURCES & CREDITS :

   NOAA